Portada
METAR-TAF:

METAR-TAF

Aeroports :

Loei, Tailàndia

latitud: 17-27N, longitud: 101-44E, altitud: 253 m

Observació

L'informe es va fer fa 5 hores i 53 minuts, a les 11:00 UTC
Vent 6 kt del Est, variant entre Est/Nord-Est i Est/Sud-Est
Temperatura 28°C
Humitat 45%
Pressió 1015 hPa
Visibilitat 10 km o més
Escasses núvols a una alçada de 3000 ft

METAR: VTUL 171100Z 10006KT 060V120 9999 FEW030 28/15 Q1015 NOSIG

Hora: 23:53 (16:53 UTC)

Pronòstic

L'informe es va fer fa 5 hores i 53 minuts, a les 11:00 UTC
Pronòstic vàlid del 17 a les 12 UTC al 18 a les 12 UTC
Vent 8 kt del Sud-Est
Visibilitat: 9000 m
Escasses núvols a una alçada de 3500 ft

TAF: VTUL 171100Z 1712/1812 14008KT 9000 FEW035

Observacions i pronòstics meteorològics de més de 4000 aeroports (METAR i TAF).

Les estacions disponibles són els punts grocs i vermells al mapa.

Posi el ratolí al punt desitjat per veure el nom de l'estació.

Feu clic per veure les observacions i els pronòstics meteorològics.

Per canviar el mapa: feu clic els botons verds amb una creu de color negre per apropar; al botó verd amb un guió per allunyar la imatge; o en les fletxes verdes per a mapes adjacents.


METAR-TAF: